Архив погоды в Кепине

Метеограмма Кепино
Вторник, 14 Августа
Время местн. Темп Ветер Видим Явления Облачность нижн/средн/верх Атм. давл. Влжн Точка росы ВНГО R Сост. почвы Tg s
Напр Скр Прв ур.ст ур.м изм
15:00 +12.3° З,С-З 1 - 10 км - облачно 749 755 +1.3 70% +6.9° 1 км - - - -
12:00 +12° З,С-З 1 - 10 км - облачно 748 754 +1.5 67% +6.1° 600 м - - - -
09:00 +9.6° З,Ю-З 2 - 10 км - облачно 746 753 +1.1 73% +5° 600 м - - - -
06:00 +7.8° С-З 1 - 10 км - облачно 745 752 +1.5 95% +7° 600 м - Влажная (без луж) - -
03:00 +7.7° С-З 2 - 10 км - облачно с прояснениями 744 750 +1.6 91% +6.4° 600 м - - - -
00:00 +8.4° С-З 2 - 10 км - облачно 742 748 +1.7 93% +7.3° 600 м - - - -
Понедельник, 13 Августа
Время местн. Темп Ветер Видим Явления Облачность нижн/средн/верх Атм. давл. Влжн Точка росы ВНГО R Сост. почвы Tg s
Напр Скр Прв ур.ст ур.м изм
21:00 +8.8° С-З 3 - 10 км небо без изменений {ливневые осадки} облачно 740 747 +2.9 93% +7.8° 600 м - - - -
18:00 +9.4° С-З 4 11 10 км слабый ливневый дождь облачно 738 744 +3.9 95% +8.6° 600 м - - - -
15:00 +11.3° З,С-З 4 - 10 км небо без изменений {ливневые осадки} облачно 734 740 +1.7 95% +10.5° 600 м - - - -
12:00 +15.8° Ю,Ю-В 1 - 10 км небо без изменений {ливневые осадки} облачно 732 738 -1.1 79% +12.2° 600 м - - - -
09:00 +13.6° Ю,Ю-В 1 - 10 км слабый ливневый дождь облачно 733 739 -1.4 93% +12.5° 600 м - - - -
06:00 +13.9° В 1 - 10 км небо без изменений {ливневые осадки} облачно 734 740 -3.9 97% +13.5° 600 м - Влажная (без луж) - -
03:00 +13.4° С-В 1 - 10 км слабый ливневый дождь облачно 738 744 -2.9 97% +12.9° 600 м - - - -
00:00 +13.9° С 1 - 10 км слабый ливневый дождь облачно 741 747 -2.8 96% +13.3° 600 м - - - -
Воскресенье, 12 Августа
Время местн. Темп Ветер Видим Явления Облачность нижн/средн/верх Атм. давл. Влжн Точка росы ВНГО R Сост. почвы Tg s
Напр Скр Прв ур.ст ур.м изм
21:00 +15.3° штиль 0 - 10 км слабый ливневый дождь облачно 744 750 -1.2 88% +13.4° 600 м - - - -
18:00 +19.2° Ю,Ю-З 1 - 20 км - облачно 745 751 -1.1 59% +10.9° 1 км - - - -
15:00 +20.3° З 2 - 20 км - облачно 746 752 -0.6 53% +10.5° 1 км - - - -
12:00 +20° Ю-З 3 - 20 км - облачно 747 753 -0.2 56% +10.9° - - - - -
09:00 +17.5° З,Ю-З 1 - 10 км - облачно 747 753 -0.3 78% +13.7° - - - - -
06:00 +12.3° Ю-З 1 - 10 км - облачно 747 754 +0.2 98% +12° - - Влажная (без луж) - -
03:00 +12.2° З 1 - 10 км небо без изменений {туман} переменная облачность 747 753 -0.1 98% +11.9° - - - - -
00:00 +14.2° Ю-З 1 - 0.5 км туман неба не видно 747 753 -1 97% +13.8° - - - - -
Суббота, 11 Августа
Время местн. Темп Ветер Видим Явления Облачность нижн/средн/верх Атм. давл. Влжн Точка росы ВНГО R Сост. почвы Tg s
Напр Скр Прв ур.ст ур.м изм
21:00 +14.9° Ю 1 - 4 км дымка облачно 748 754 -1.2 97% +14.4° 600 м - - - -
18:00 +14.6° Ю-В 1 - 10 км - облачно 749 756 -1.2 95% +13.8° 600 м - - - -
15:00 +13.7° В,Ю-В 1 - 10 км небо без изменений {ливневые осадки} облачно 751 757 -1.7 96% +13° 600 м - - - -
12:00 +14.1° штиль 0 - 10 км слабый ливневый дождь облачно 752 759 -1.1 92% +12.9° 600 м - - - -